Latest Weather Observations for Thredbo Top Station

IDN60801

Issued at 3:02 am EST Monday 20 April 2015 (issued every 30 minutes, with the page automatically refreshed every 10 minutes)

About weather observations | Map of weather stations | Latest weather observations for NSW | Other Formats
Station Details ID: 071032 Name: THREDBO AWS Lat: -36.49 Lon: 148.29 Height: 1957.0 m
Data from the previous 72 hours. | See also: Recent months at Thredbo Top Station
Date/Time
EST
Temp
°C
App
Temp
°C
Dew
Point
Rel
Hum
%
Delta-T
°C
Wind Press
QNH
hPa
Press
MSL
hPa
Rain
since 9 am
mm
Dir
 
Spd
km/h
Gust
km/h
Spd
kts
Gust
kts
20/03:00am -3.3 -9.3 -3.4 99 -0.1 SSE 19 30 10 16 - - 0.6
20/02:30am -3.3 -9.5 -3.4 99 -0.1 SSE 20 37 11 20 - - 0.6
20/02:00am -3.4 -10.4 -3.5 99 -0.1 SSE 24 39 13 21 - - 0.6
20/01:30am -3.5 -10.9 -3.6 99 -0.1 SSE 26 43 14 23 - - 0.6
20/01:00am -3.5 -8.8 -3.6 99 -0.1 SSE 15 24 8 13 - - 0.6
20/12:30am -3.5 -9.6 -3.6 99 -0.1 SSE 19 28 10 15 - - 0.6
20/12:00am -3.4 -9.1 -3.5 99 -0.1 SSE 17 22 9 12 - - 0.6
 
Date/Time
EST
Temp
°C
App
Temp
°C
Dew
Point
Rel
Hum
%
Delta-T
°C
Wind Press
QNH
hPa
Press
MSL
hPa
Rain
since 9 am
mm
Dir
 
Spd
km/h
Gust
km/h
Spd
kts
Gust
kts
19/11:30pm -3.4 -9.6 -3.5 99 -0.1 SSE 20 32 11 17 - - 0.6
19/11:00pm -3.4 -10.0 -3.5 99 -0.1 SSE 22 33 12 18 - - 0.6
19/10:30pm -3.3 -9.9 -3.4 99 -0.1 SSE 22 33 12 18 1029.2 1029.4 0.6
19/10:00pm -3.2 -8.5 -3.3 99 -0.1 SSE 15 22 8 12 1028.8 1029.1 0.6
19/09:30pm -3.1 -9.1 -3.2 99 -0.1 SSE 19 30 10 16 1028.6 1028.8 0.6
19/09:00pm -3.0 -9.0 -3.1 99 -0.1 S 19 32 10 17 1028.3 1028.5 0.6
19/08:30pm -3.0 -9.0 -3.1 99 -0.1 S 19 28 10 15 1028.0 1028.2 0.6
19/08:00pm -2.8 -10.5 -2.9 99 -0.1 SSE 28 37 15 20 1027.7 1027.9 0.6
19/07:30pm -2.6 -10.3 -2.7 99 -0.1 SSE 28 41 15 22 1027.0 1027.2 0.6
19/07:00pm -2.6 -9.5 -2.7 99 -0.1 S 24 37 13 20 1026.6 1026.7 0.6
19/06:30pm -2.6 -9.5 -2.7 99 -0.1 SSE 24 37 13 20 1026.1 1026.2 0.6
19/06:00pm -2.6 -8.6 -2.7 99 -0.1 S 19 30 10 16 1025.8 1025.9 0.6
19/05:30pm -2.3 -8.2 -2.4 99 -0.1 S 19 30 10 16 1025.3 1025.4 0.6
19/05:00pm -2.2 -7.3 -2.3 99 -0.1 S 15 22 8 12 1024.7 1024.8 0.6
19/04:30pm -2.3 -8.4 -2.4 99 -0.1 S 20 30 11 16 1024.5 1024.6 0.6
19/04:00pm -1.5 -6.6 -1.6 99 0.0 S 15 26 8 14 1023.9 1024.0 0.6
19/03:30pm -1.6 -6.3 -1.7 99 0.0 S 13 20 7 11 1023.4 1023.4 0.6
19/03:00pm -1.4 -6.1 -1.5 99 0.0 S 13 19 7 10 1023.1 1023.2 0.6
19/02:30pm -1.8 -7.3 -1.9 99 -0.1 S 17 24 9 13 1023.0 1023.0 0.6
19/02:00pm -1.8 -7.8 -1.9 99 -0.1 S 20 30 11 16 1022.9 1022.9 0.6
19/01:30pm -1.3 -6.3 -1.4 99 0.0 S 15 24 8 13 1022.3 1022.3 0.6
19/01:00pm -1.4 -6.8 -1.5 99 0.0 S 17 26 9 14 1022.2 1022.2 0.6
19/12:30pm -1.5 -6.9 -1.6 99 0.0 S 17 24 9 13 1022.2 1022.2 0.6
19/12:00pm -1.5 -7.3 -1.6 99 0.0 S 19 30 10 16 1022.1 1022.1 0.6
19/11:30am -1.7 -7.7 -1.8 99 0.0 SSW 20 30 11 16 1022.1 1022.1 0.4
19/11:00am -1.9 -7.8 -2.0 99 -0.1 SSW 19 26 10 14 1021.9 1021.9 0.4
19/10:30am -2.0 -7.9 -2.1 99 -0.1 S 19 26 10 14 1021.8 1021.8 0.4
19/10:00am -1.4 -6.1 -1.5 99 0.0 S 13 20 7 11 1021.5 1021.5 0.0
19/09:30am -1.5 -6.9 -1.6 99 0.0 S 17 24 9 13 1021.1 1021.0 0.0
19/09:00am -1.2 -6.6 -1.3 99 0.0 S 17 22 9 12 1020.7 1020.7 39.2
19/08:30am -0.8 -5.4 -0.9 99 0.0 SSW 13 20 7 11 1020.2 1020.1 39.2
19/08:00am -0.4 -3.8 -0.5 99 0.0 SSE 7 13 4 7 1019.6 1019.5 38.8
19/07:30am 2.8 -1.2 2.7 99 0.0 NNW 13 22 7 12 1018.8 1018.7 37.8
19/07:00am 2.6 -1.1 2.5 99 0.0 NW 11 22 6 12 1017.9 1017.7 37.2
19/06:30am 2.8 -2.6 2.7 99 0.0 WNW 20 35 11 19 1017.1 1016.9 36.8
19/06:00am 3.1 -3.0 3.0 99 0.0 NW 24 39 13 21 1016.7 1016.6 35.2
19/05:30am 2.9 -2.8 2.8 99 0.0 NW 22 37 12 20 1016.5 1016.3 34.4
19/05:00am 2.5 -4.0 2.4 99 0.0 NNW 26 33 14 18 1016.0 1015.9 33.2
19/04:30am 2.2 -5.2 2.1 99 0.0 NW 30 41 16 22 1015.9 1015.7 33.2
19/04:00am 2.1 -4.5 2.0 99 0.0 NW 26 37 14 20 1015.8 1015.6 33.2
19/03:30am 1.8 -4.5 1.7 99 0.0 NW 24 35 13 19 1016.2 1016.0 33.2
19/03:00am 1.6 -5.1 1.5 99 0.0 NW 26 35 14 19 1016.3 1016.1 33.2
19/02:30am 1.6 -6.2 1.5 99 0.0 NW 32 43 17 23 1016.0 1015.9 33.2
19/02:00am 1.8 -7.8 1.2 96 0.2 NW 41 56 22 30 1016.0 1015.9 33.2
19/01:49am 1.6 -6.7 -0.5 86 0.8 NW 33 52 18 28 1015.9 1015.7 33.2
19/01:30am 2.1 -7.7 -0.2 85 0.9 NW 41 52 22 28 1015.9 1015.7 33.2
19/01:12am 2.5 -5.6 0.9 89 0.7 NW 33 57 18 31 1016.2 1016.0 33.2
19/01:00am 2.4 -6.0 1.4 93 0.4 NW 35 52 19 28 1016.5 1016.3 33.2
19/12:58am 2.4 -6.4 1.2 92 0.5 NW 37 56 20 30 1016.5 1016.3 33.2
19/12:30am 2.7 -6.4 1.8 94 0.4 NW 39 50 21 27 1016.2 1016.0 33.2
19/12:00am 3.5 -5.5 2.2 91 0.6 NW 39 56 21 30 1016.0 1015.9 33.2
 
Date/Time
EST
Temp
°C
App
Temp
°C
Dew
Point
Rel
Hum
%
Delta-T
°C
Wind Press
QNH
hPa
Press
MSL
hPa
Rain
since 9 am
mm
Dir
 
Spd
km/h
Gust
km/h
Spd
kts
Gust
kts
18/11:51pm 3.7 -4.5 2.5 92 0.5 NW 35 56 19 30 1015.9 1015.7 33.2
18/11:30pm 4.0 -4.7 3.9 99 0.0 NW 39 52 21 28 1015.7 1015.5 33.2
18/11:16pm 4.3 -2.3 4.2 99 0.0 WNW 28 46 15 25 1015.7 1015.5 33.2
18/11:00pm 4.8 -1.7 4.7 99 0.0 NW 28 43 15 23 1015.8 1015.6 33.0
18/10:31pm 5.0 -3.2 4.9 99 0.0 NW 37 56 20 30 1015.8 1015.6 32.8
18/10:30pm 5.0 -3.6 4.9 99 0.0 NW 39 56 21 30 1015.7 1015.5 32.8
18/10:00pm 5.1 -2.7 5.0 99 0.0 NW 35 54 19 29 1015.7 1015.5 32.8
18/09:40pm 5.2 -2.9 5.1 99 0.0 WNW 37 56 20 30 1015.7 1015.5 32.8
18/09:30pm 5.5 -2.9 5.4 99 0.0 WNW 39 56 21 30 1015.6 1015.4 32.6
18/09:02pm 5.5 -2.9 5.4 99 0.0 NW 39 57 21 31 1015.1 1014.9 32.4
18/09:00pm 5.5 -3.3 5.4 99 0.0 NW 41 57 22 31 1015.0 1014.8 32.4
18/08:30pm 6.1 -3.2 6.0 99 0.0 NW 44 63 24 34 1014.6 1014.3 31.4
18/08:02pm 6.2 -2.9 6.1 99 0.0 NW 43 61 23 33 1014.6 1014.3 31.0
18/08:00pm 6.2 -3.1 6.1 99 0.0 NW 44 61 24 33 1014.7 1014.4 31.0
18/07:30pm 6.2 -2.9 6.1 99 0.0 NW 43 65 23 35 1014.6 1014.3 30.8
18/07:06pm 6.0 -4.1 5.9 99 0.0 NW 48 67 26 36 1014.7 1014.4 30.4
18/07:00pm 6.0 -4.8 5.9 99 0.0 NW 52 67 28 36 1014.4 1014.2 30.2
18/06:32pm 6.0 -3.7 5.9 99 0.0 NW 46 65 25 35 1014.8 1014.6 29.2
18/06:30pm 6.1 -3.9 6.0 99 0.0 NW 48 65 26 35 1014.7 1014.4 29.0
18/06:00pm 6.2 -1.7 6.1 99 0.0 WNW 37 63 20 34 1014.7 1014.4 27.4
18/05:49pm 6.7 -0.7 6.6 99 0.0 WNW 35 52 19 28 1014.2 1014.0 26.0
18/05:44pm 7.0 -0.7 6.9 99 0.0 WNW 37 54 20 29 1013.8 1013.5 24.8
18/05:30pm 7.4 0.1 7.3 99 0.1 NW 35 59 19 32 1014.0 1013.7 22.6
18/05:13pm 7.4 -3.5 7.3 99 0.1 NNW 54 69 29 37 1013.9 1013.6 18.8
18/05:10pm 7.5 -3.7 7.4 99 0.1 NNW 56 76 30 41 1013.8 1013.5 18.4
18/05:00pm 7.3 -5.7 7.2 99 0.1 NNW 65 83 35 45 1013.4 1013.1 17.6
18/04:30pm 7.8 -5.8 7.7 99 0.1 NNW 69 87 37 47 1013.8 1013.5 15.8
18/04:00pm 7.9 -6.3 7.8 99 0.1 NNW 72 96 39 52 1013.4 1013.1 12.8
18/03:36pm 8.1 -6.0 8.0 99 0.1 NNW 72 100 39 54 1013.2 1012.9 10.8
18/03:30pm 8.1 -7.6 8.0 99 0.1 NNW 80 102 43 55 1013.3 1013.0 10.0
18/03:00pm 8.0 -9.4 7.9 99 0.1 NNW 89 119 48 64 1013.9 1013.6 9.8
18/02:30pm 7.9 -9.1 7.8 99 0.1 NNW 87 113 47 61 1013.5 1013.3 7.6
18/02:00pm 7.9 -6.7 7.8 99 0.1 NNW 74 96 40 52 1013.6 1013.4 6.8
18/01:30pm 7.8 -8.5 7.7 99 0.1 NNW 83 109 45 59 1013.5 1013.3 6.4
18/01:00pm 7.8 -8.5 7.7 99 0.1 NNW 83 126 45 68 1014.0 1013.7 6.2
18/12:30pm 7.6 -9.9 7.5 99 0.1 NNW 89 126 48 68 1014.4 1014.2 6.0
18/12:29pm 7.6 -9.5 7.5 99 0.1 NW 87 126 47 68 1014.7 1014.4 6.0
18/12:00pm 7.8 -8.3 7.7 99 0.1 NNW 82 106 44 57 1015.0 1014.8 5.8
18/11:30am 7.9 -8.2 7.8 99 0.1 NNW 82 109 44 59 1015.5 1015.3 5.2
18/11:00am 7.9 -9.5 7.8 99 0.1 NNW 89 109 48 59 1015.6 1015.4 3.8
18/10:30am 7.9 -9.1 7.8 99 0.1 NNW 87 107 47 58 1015.9 1015.7 3.4
18/10:00am 7.7 -8.4 7.6 99 0.1 NNW 82 104 44 56 1016.4 1016.2 2.4
18/09:30am 7.5 -7.2 7.4 99 0.1 NW 74 102 40 55 1017.1 1016.9 1.2
18/09:00am 7.8 -6.4 7.7 99 0.1 NW 72 109 39 59 1016.8 1016.7 50.2
18/08:30am 7.9 -4.6 7.8 99 0.1 NW 63 95 34 51 1017.1 1016.9 47.6
18/08:09am 8.0 -4.1 7.9 99 0.1 NW 61 96 33 52 1016.5 1016.3 46.4
18/08:01am 8.6 -4.8 8.5 99 0.1 NW 69 98 37 53 1016.6 1016.4 43.4
18/08:00am 8.6 -5.0 8.5 99 0.1 NW 70 98 38 53 1016.6 1016.4 43.0
18/07:30am 8.6 -7.9 8.5 99 0.1 NNW 85 109 46 59 1016.6 1016.4 39.6
18/07:00am 8.3 -7.9 8.2 99 0.1 NW 83 109 45 59 1017.1 1016.9 38.6
18/06:30am 8.7 -7.4 8.6 99 0.1 NNW 83 113 45 61 1016.5 1016.3 36.4
18/06:00am 8.6 -7.5 8.5 99 0.1 NNW 83 117 45 63 1017.0 1016.8 35.4
18/05:30am 8.8 -6.3 8.7 99 0.1 NNW 78 111 42 60 1017.5 1017.4 34.6
18/05:00am 8.7 -6.4 8.6 99 0.1 NNW 78 107 42 58 1017.3 1017.2 33.4
18/04:40am 8.6 -5.4 8.5 99 0.1 NNW 72 115 39 62 1017.2 1017.0 31.2
18/04:30am 8.5 -3.8 8.4 99 0.1 NNW 63 91 34 49 1017.1 1016.9 30.2
18/04:26am 8.4 -2.8 8.3 99 0.1 NNW 57 91 31 49 1017.2 1017.0 29.8
18/04:12am 8.2 -4.6 8.1 99 0.1 NW 65 100 35 54 1016.5 1016.3 27.8
18/04:10am 8.3 -5.2 8.2 99 0.1 NNW 69 100 37 54 1016.8 1016.7 27.6
18/04:00am 9.0 -5.7 8.9 99 0.1 NNW 76 107 41 58 1016.5 1016.3 25.0
18/03:30am 8.8 -7.6 8.7 99 0.1 NNW 85 113 46 61 1016.5 1016.3 24.0
18/03:00am 8.9 -6.6 8.8 99 0.1 NNW 80 111 43 60 1016.0 1015.9 23.0
18/02:40am 8.8 -7.3 8.7 99 0.1 NNW 83 107 45 58 1016.7 1016.6 23.0
18/02:38am 8.8 -7.3 8.7 99 0.1 NNW 83 107 45 58 1016.6 1016.4 23.0
18/02:30am 8.7 -5.3 8.6 99 0.1 NNW 72 102 39 55 1016.7 1016.6 23.0
18/02:00am 8.1 -5.1 8.0 99 0.1 NNW 67 85 36 46 1017.1 1016.9 22.8
18/01:30am 8.2 -5.9 8.1 99 0.1 NNW 72 95 39 51 1018.0 1017.9 22.0
18/01:16am 8.2 -7.1 8.1 99 0.1 NNW 78 102 42 55 1018.3 1018.2 22.0
18/01:15am 8.1 -7.2 8.0 99 0.1 NNW 78 102 42 55 1018.7 1018.6 22.0
18/01:06am 8.2 -5.0 8.1 99 0.1 NNW 67 95 36 51 1018.1 1018.0 21.8
18/01:00am 8.2 -4.6 8.1 99 0.1 NNW 65 82 35 44 1018.1 1018.0 21.8
18/12:30am 8.3 -5.8 8.2 99 0.1 NNW 72 96 39 52 1018.6 1018.5 21.2
18/12:00am 8.1 -6.4 8.0 99 0.1 NW 74 107 40 58 1018.7 1018.6 20.2
 
Date/Time
EST
Temp
°C
App
Temp
°C
Dew
Point
Rel
Hum
%
Delta-T
°C
Wind Press
QNH
hPa
Press
MSL
hPa
Rain
since 9 am
mm
Dir
 
Spd
km/h
Gust
km/h
Spd
kts
Gust
kts
17/11:30pm 8.4 -7.8 8.3 99 0.1 NNW 83 106 45 57 1019.7 1019.6 19.2
17/11:00pm 8.5 -5.9 8.4 99 0.1 NNW 74 95 40 51 1019.6 1019.5 15.0
17/10:30pm 8.4 -6.8 8.3 99 0.1 NNW 78 98 42 53 1020.2 1020.1 14.2
17/10:00pm 8.6 -7.5 8.5 99 0.1 NNW 83 104 45 56 1020.2 1020.1 13.2
17/09:30pm 8.6 -7.3 8.5 99 0.1 NNW 82 102 44 55 1019.9 1019.9 12.0
17/09:00pm 8.7 -6.4 8.6 99 0.1 NNW 78 98 42 53 1019.6 1019.5 11.0
17/08:30pm 8.4 -6.4 8.3 99 0.1 NNW 76 100 41 54 1019.8 1019.7 10.6
17/08:04pm 8.4 -5.7 8.3 99 0.1 NNW 72 91 39 49 1020.0 1020.0 10.0
17/08:00pm 8.4 -6.0 8.3 99 0.1 NNW 74 91 40 49 1020.3 1020.2 10.0
17/07:31pm 8.4 -6.0 8.3 99 0.1 NNW 74 93 40 50 1020.5 1020.5 9.4
17/07:30pm 8.4 -6.0 8.3 99 0.1 NNW 74 91 40 49 1020.6 1020.6 9.4
17/07:00pm 8.4 -5.1 8.3 99 0.1 NNW 69 87 37 47 1020.7 1020.7 8.2
17/06:30pm 8.4 -4.3 8.3 99 0.1 NNW 65 87 35 47 1020.5 1020.5 7.4
17/06:00pm 8.3 -2.9 8.2 99 0.1 NNW 57 78 31 42 1020.0 1020.0 6.4
17/05:48pm 8.2 -0.4 8.1 99 0.1 NNW 43 69 23 37 1020.0 1020.0 6.4
17/05:30pm 8.1 0.6 8.0 99 0.1 NW 37 50 20 27 1020.5 1020.5 6.0
17/05:00pm 8.3 1.2 8.2 99 0.1 NW 35 57 19 31 1020.4 1020.3 5.2
17/04:53pm 8.2 0.0 8.1 99 0.1 NNW 41 59 22 32 1020.4 1020.3 4.8
17/04:30pm 8.2 -0.6 8.1 99 0.1 NNW 44 61 24 33 1020.7 1020.7 4.2
17/04:06pm 7.7 -0.3 7.6 99 0.1 NNW 39 57 21 31 1021.0 1020.9 3.4
17/04:00pm 7.7 -0.3 7.6 99 0.1 NNW 39 50 21 27 1020.8 1020.8 3.0
17/03:30pm 7.7 -2.0 7.6 99 0.1 NNW 48 61 26 33 1021.0 1020.9 2.4
17/03:00pm 7.7 -1.6 7.6 99 0.1 NNW 46 59 25 32 1021.0 1020.9 2.0
17/02:30pm 7.8 1.0 7.7 99 0.1 NNW 33 50 18 27 1021.2 1021.2 1.8
17/02:00pm 7.8 1.2 7.7 99 0.1 NNW 32 43 17 23 1021.5 1021.5 1.4
17/01:30pm 8.0 0.9 7.9 99 0.1 NNW 35 46 19 25 1022.0 1022.0 1.4
17/01:00pm 8.0 0.5 7.9 99 0.1 NNW 37 46 20 25 1022.6 1022.6 1.0
17/12:30pm 9.0 4.2 8.7 98 0.2 NNW 24 37 13 20 1023.0 1023.0 0.8
17/12:00pm 8.5 4.0 8.4 99 0.1 N 22 32 12 17 1023.7 1023.8 0.4
17/11:30am 8.0 2.6 7.9 99 0.1 NNW 26 33 14 18 1024.5 1024.6 0.4
17/11:00am 8.2 4.0 8.1 99 0.1 NNW 20 28 11 15 1025.1 1025.2 0.2
17/10:30am 8.7 4.9 7.5 92 0.6 NNW 17 24 9 13 1025.2 1025.3 0.0
17/10:00am 8.7 5.2 7.0 89 0.9 NNW 15 22 8 12 1025.4 1025.5 0.0
17/09:30am 7.3 3.9 5.9 91 0.7 NNE 13 15 7 8 1025.6 1025.8 0.0
17/09:00am 6.2 2.2 4.8 91 0.7 N 15 20 8 11 1025.9 1026.0 0.2
17/08:30am 6.1 1.1 4.7 91 0.7 N 20 28 11 15 1025.9 1026.0 0.0
17/08:00am 5.6 -0.1 4.9 95 0.3 NNW 24 32 13 17 1025.8 1025.9 0.0
17/07:30am 5.5 -1.3 5.1 97 0.2 NNW 30 35 16 19 1025.6 1025.8 0.0
17/07:00am 5.4 -1.9 4.7 95 0.3 NNW 32 37 17 20 1025.3 1025.4 0.0
17/06:30am 5.7 -1.8 4.2 90 0.7 NNW 33 41 18 22 1025.2 1025.3 0.0
17/06:00am 5.9 -0.3 4.4 90 0.7 NNW 26 33 14 18 1025.2 1025.3 0.0
17/05:30am 6.3 1.1 3.3 81 1.4 NNW 20 24 11 13 1025.0 1025.1 0.0
17/05:00am 6.4 1.6 0.1 64 2.7 NNW 15 19 8 10 1024.7 1024.8 0.0
17/04:30am 7.0 2.2 -2.2 52 3.7 NW 13 19 7 10 1024.7 1024.8 0.0
17/04:00am 6.0 2.1 -1.2 60 2.9 NW 9 13 5 7 1024.6 1024.7 0.0
17/03:30am 6.4 3.0 -0.3 62 2.8 WNW 7 9 4 5 1024.7 1024.8 0.0

Other Formats:

Comma delimited format used in spreadsheet applications
http://www.bom.gov.au/fwo/IDN60801/IDN60801.95909.axf

JavaScript Object Notation format (JSON) in row-major order
http://www.bom.gov.au/fwo/IDN60801/IDN60801.95909.json